sensor_id;sensor_type;location;lat;lon;timestamp;temperature;humidity
80192;SHT31;69513;51.990;5.704;2024-02-21T07:01:44;13.4;63.2
80192;SHT31;69513;51.990;5.704;2024-02-21T07:04:13;13.3;63.0
80192;SHT31;69513;51.990;5.704;2024-02-21T07:06:45;13.1;63.4
80192;SHT31;69513;51.990;5.704;2024-02-21T07:09:14;13.0;64.4
80192;SHT31;69513;51.990;5.704;2024-02-21T07:11:44;12.8;64.7
80192;SHT31;69513;51.990;5.704;2024-02-21T07:14:14;12.6;65.3
80192;SHT31;69513;51.990;5.704;2024-02-21T07:16:43;12.5;65.7
80192;SHT31;69513;51.990;5.704;2024-02-21T07:19:12;12.4;66.2
80192;SHT31;69513;51.990;5.704;2024-02-21T07:21:42;12.3;66.7
80192;SHT31;69513;51.990;5.704;2024-02-21T07:24:12;12.2;66.9
80192;SHT31;69513;51.990;5.704;2024-02-21T07:26:47;12.1;67.2
80192;SHT31;69513;51.990;5.704;2024-02-21T07:29:18;12.0;67.9
80192;SHT31;69513;51.990;5.704;2024-02-21T07:31:48;11.9;68.2
80192;SHT31;69513;51.990;5.704;2024-02-21T07:34:20;11.8;68.3
80192;SHT31;69513;51.990;5.704;2024-02-21T07:36:49;11.8;68.6
80192;SHT31;69513;51.990;5.704;2024-02-21T07:39:18;11.7;69.2
80192;SHT31;69513;51.990;5.704;2024-02-21T07:41:48;11.6;69.4
80192;SHT31;69513;51.990;5.704;2024-02-21T07:44:19;11.6;70.0
80192;SHT31;69513;51.990;5.704;2024-02-21T07:46:49;11.5;70.2
80192;SHT31;69513;51.990;5.704;2024-02-21T07:49:19;11.5;70.3
80192;SHT31;69513;51.990;5.704;2024-02-21T07:51:48;11.5;70.8
80192;SHT31;69513;51.990;5.704;2024-02-21T07:54:20;11.5;70.5
80192;SHT31;69513;51.990;5.704;2024-02-21T07:56:49;11.4;70.7
80192;SHT31;69513;51.990;5.704;2024-02-21T07:59:20;11.4;70.6
80192;SHT31;69513;51.990;5.704;2024-02-21T08:01:50;11.4;70.7
80192;SHT31;69513;51.990;5.704;2024-02-21T08:04:21;11.4;70.5
80192;SHT31;69513;51.990;5.704;2024-02-21T08:06:55;11.4;70.9
80192;SHT31;69513;51.990;5.704;2024-02-21T08:09:29;11.4;71.1
80192;SHT31;69513;51.990;5.704;2024-02-21T08:12:00;11.4;71.2
80192;SHT31;69513;51.990;5.704;2024-02-21T08:14:29;11.3;71.0
80192;SHT31;69513;51.990;5.704;2024-02-21T08:16:59;11.3;71.2
80192;SHT31;69513;51.990;5.704;2024-02-21T08:19:30;11.3;71.4
80192;SHT31;69513;51.990;5.704;2024-02-21T08:22:01;11.3;71.4
80192;SHT31;69513;51.990;5.704;2024-02-21T08:24:30;11.3;71.6
80192;SHT31;69513;51.990;5.704;2024-02-21T08:27:03;11.3;71.8
80192;SHT31;69513;51.990;5.704;2024-02-21T08:29:33;11.4;71.5
80192;SHT31;69513;51.990;5.704;2024-02-21T08:32:04;11.4;71.2
80192;SHT31;69513;51.990;5.704;2024-02-21T08:34:34;11.4;70.7
80192;SHT31;69513;51.990;5.704;2024-02-21T08:37:05;11.4;70.8
80192;SHT31;69513;51.990;5.704;2024-02-21T08:39:39;11.4;71.2
80192;SHT31;69513;51.990;5.704;2024-02-21T08:42:08;11.4;70.4
80192;SHT31;69513;51.990;5.704;2024-02-21T08:44:40;11.4;70.7
80192;SHT31;69513;51.990;5.704;2024-02-21T08:47:11;11.4;71.1
80192;SHT31;69513;51.990;5.704;2024-02-21T08:49:42;11.4;70.5
80192;SHT31;69513;51.990;5.704;2024-02-21T08:52:11;11.4;71.0
80192;SHT31;69513;51.990;5.704;2024-02-21T08:54:41;11.4;71.3
80192;SHT31;69513;51.990;5.704;2024-02-21T08:57:11;11.4;70.6
80192;SHT31;69513;51.990;5.704;2024-02-21T08:59:42;11.5;70.9
80192;SHT31;69513;51.990;5.704;2024-02-21T09:02:13;11.5;70.3
80192;SHT31;69513;51.990;5.704;2024-02-21T09:04:44;11.5;71.1
80192;SHT31;69513;51.990;5.704;2024-02-21T09:07:16;11.5;70.6
80192;SHT31;69513;51.990;5.704;2024-02-21T09:09:46;11.5;70.7
80192;SHT31;69513;51.990;5.704;2024-02-21T09:12:15;11.5;70.8
80192;SHT31;69513;51.990;5.704;2024-02-21T09:14:45;11.5;70.2
80192;SHT31;69513;51.990;5.704;2024-02-21T09:17:18;11.5;70.8
80192;SHT31;69513;51.990;5.704;2024-02-21T09:19:48;11.6;71.0
80192;SHT31;69513;51.990;5.704;2024-02-21T09:22:18;11.6;70.7
80192;SHT31;69513;51.990;5.704;2024-02-21T09:24:47;11.6;70.8
80192;SHT31;69513;51.990;5.704;2024-02-21T09:27:16;11.6;70.5
80192;SHT31;69513;51.990;5.704;2024-02-21T09:29:46;11.6;71.0
80192;SHT31;69513;51.990;5.704;2024-02-21T09:32:16;11.6;70.7
80192;SHT31;69513;51.990;5.704;2024-02-21T09:34:46;11.6;70.2
80192;SHT31;69513;51.990;5.704;2024-02-21T09:37:15;11.7;70.4
80192;SHT31;69513;51.990;5.704;2024-02-21T09:39:45;11.7;70.5
80192;SHT31;69513;51.990;5.704;2024-02-21T09:42:20;11.7;69.8
80192;SHT31;69513;51.990;5.704;2024-02-21T09:44:51;11.7;69.8
80192;SHT31;69513;51.990;5.704;2024-02-21T09:47:24;11.7;70.1
80192;SHT31;69513;51.990;5.704;2024-02-21T09:49:55;11.7;70.1
80192;SHT31;69513;51.990;5.704;2024-02-21T09:52:26;11.7;70.1
80192;SHT31;69513;51.990;5.704;2024-02-21T09:54:56;11.7;69.9
80192;SHT31;69513;51.990;5.704;2024-02-21T09:57:28;11.7;69.4
80192;SHT31;69513;51.990;5.704;2024-02-21T09:59:57;11.8;70.0
80192;SHT31;69513;51.990;5.704;2024-02-21T10:02:33;11.8;69.4
80192;SHT31;69513;51.990;5.704;2024-02-21T10:05:04;11.8;69.3
80192;SHT31;69513;51.990;5.704;2024-02-21T10:07:35;11.8;69.5
80192;SHT31;69513;51.990;5.704;2024-02-21T10:10:12;11.8;70.0
80192;SHT31;69513;51.990;5.704;2024-02-21T10:12:51;11.8;70.5
80192;SHT31;69513;51.990;5.704;2024-02-21T10:15:25;11.8;70.5
80192;SHT31;69513;51.990;5.704;2024-02-21T10:18:02;11.8;70.5
80192;SHT31;69513;51.990;5.704;2024-02-21T10:20:35;11.9;69.7
80192;SHT31;69513;51.990;5.704;2024-02-21T10:23:06;11.9;69.6
80192;SHT31;69513;51.990;5.704;2024-02-21T10:25:39;11.9;69.7
80192;SHT31;69513;51.990;5.704;2024-02-21T10:28:15;11.9;69.9
80192;SHT31;69513;51.990;5.704;2024-02-21T10:30:52;11.9;69.5
80192;SHT31;69513;51.990;5.704;2024-02-21T10:33:22;11.9;69.7
80192;SHT31;69513;51.990;5.704;2024-02-21T10:35:53;12.0;69.9
80192;SHT31;69513;51.990;5.704;2024-02-21T10:38:23;12.0;70.1
80192;SHT31;69513;51.990;5.704;2024-02-21T10:40:53;12.0;70.1
80192;SHT31;69513;51.990;5.704;2024-02-21T10:43:27;12.0;70.1
80192;SHT31;69513;51.990;5.704;2024-02-21T10:46:01;12.0;70.3
80192;SHT31;69513;51.990;5.704;2024-02-21T10:48:44;12.0;70.3
80192;SHT31;69513;51.990;5.704;2024-02-21T10:51:18;12.0;70.6
80192;SHT31;69513;51.990;5.704;2024-02-21T10:54:01;12.0;70.4
80192;SHT31;69513;51.990;5.704;2024-02-21T10:56:32;12.0;70.8
80192;SHT31;69513;51.990;5.704;2024-02-21T10:59:07;12.0;70.9
80192;SHT31;69513;51.990;5.704;2024-02-21T11:01:37;12.0;71.1
80192;SHT31;69513;51.990;5.704;2024-02-21T11:04:08;12.0;71.0
80192;SHT31;69513;51.990;5.704;2024-02-21T11:06:41;12.0;70.4
80192;SHT31;69513;51.990;5.704;2024-02-21T11:09:11;12.0;71.2
80192;SHT31;69513;51.990;5.704;2024-02-21T11:11:44;12.0;71.4
80192;SHT31;69513;51.990;5.704;2024-02-21T11:14:21;12.0;71.2
80192;SHT31;69513;51.990;5.704;2024-02-21T11:16:51;12.1;70.9
80192;SHT31;69513;51.990;5.704;2024-02-21T11:19:23;12.1;70.7
80192;SHT31;69513;51.990;5.704;2024-02-21T11:21:56;12.1;70.7
80192;SHT31;69513;51.990;5.704;2024-02-21T11:24:31;12.1;70.2
80192;SHT31;69513;51.990;5.704;2024-02-21T11:27:12;12.1;70.1
80192;SHT31;69513;51.990;5.704;2024-02-21T11:29:47;12.1;70.0
80192;SHT31;69513;51.990;5.704;2024-02-21T11:32:20;12.1;69.9
80192;SHT31;69513;51.990;5.704;2024-02-21T11:34:59;12.1;69.9
80192;SHT31;69513;51.990;5.704;2024-02-21T11:37:34;12.1;70.0
80192;SHT31;69513;51.990;5.704;2024-02-21T11:40:08;12.1;70.0
80192;SHT31;69513;51.990;5.704;2024-02-21T11:42:40;12.1;69.9
80192;SHT31;69513;51.990;5.704;2024-02-21T11:45:11;12.1;69.7
80192;SHT31;69513;51.990;5.704;2024-02-21T11:47:42;12.1;69.8
80192;SHT31;69513;51.990;5.704;2024-02-21T11:50:15;12.1;69.2
80192;SHT31;69513;51.990;5.704;2024-02-21T11:52:50;12.1;69.2
80192;SHT31;69513;51.990;5.704;2024-02-21T11:55:20;12.1;69.5
80192;SHT31;69513;51.990;5.704;2024-02-21T11:57:51;12.1;69.3
80192;SHT31;69513;51.990;5.704;2024-02-21T12:00:23;12.0;69.5
80192;SHT31;69513;51.990;5.704;2024-02-21T12:02:55;12.0;69.1
80192;SHT31;69513;51.990;5.704;2024-02-21T12:05:31;12.0;69.1
80192;SHT31;69513;51.990;5.704;2024-02-21T12:08:01;12.0;69.5
80192;SHT31;69513;51.990;5.704;2024-02-21T12:10:31;12.0;69.4
80192;SHT31;69513;51.990;5.704;2024-02-21T12:13:09;12.0;68.9
80192;SHT31;69513;51.990;5.704;2024-02-21T12:15:41;12.0;69.6
80192;SHT31;69513;51.990;5.704;2024-02-21T12:18:12;12.1;69.7
80192;SHT31;69513;51.990;5.704;2024-02-21T12:20:43;12.1;69.8
80192;SHT31;69513;51.990;5.704;2024-02-21T12:23:14;12.1;69.7
80192;SHT31;69513;51.990;5.704;2024-02-21T12:25:45;12.2;69.3
80192;SHT31;69513;51.990;5.704;2024-02-21T12:28:15;12.2;68.9
80192;SHT31;69513;51.990;5.704;2024-02-21T12:30:46;12.2;68.9
80192;SHT31;69513;51.990;5.704;2024-02-21T12:33:15;12.3;68.9
80192;SHT31;69513;51.990;5.704;2024-02-21T12:35:45;12.3;68.4
80192;SHT31;69513;51.990;5.704;2024-02-21T12:38:16;12.3;68.6
80192;SHT31;69513;51.990;5.704;2024-02-21T12:40:48;12.4;68.7
80192;SHT31;69513;51.990;5.704;2024-02-21T12:43:18;12.4;68.0
80192;SHT31;69513;51.990;5.704;2024-02-21T12:45:50;12.4;68.3
80192;SHT31;69513;51.990;5.704;2024-02-21T12:48:20;12.4;68.6
80192;SHT31;69513;51.990;5.704;2024-02-21T12:50:51;12.4;68.3
80192;SHT31;69513;51.990;5.704;2024-02-21T12:53:21;12.4;68.0
80192;SHT31;69513;51.990;5.704;2024-02-21T12:55:51;12.4;67.8
80192;SHT31;69513;51.990;5.704;2024-02-21T12:58:21;12.5;67.7
80192;SHT31;69513;51.990;5.704;2024-02-21T13:00:52;12.5;67.8
80192;SHT31;69513;51.990;5.704;2024-02-21T13:03:24;12.5;67.2
80192;SHT31;69513;51.990;5.704;2024-02-21T13:05:55;12.5;67.0
80192;SHT31;69513;51.990;5.704;2024-02-21T13:08:27;12.5;67.3
80192;SHT31;69513;51.990;5.704;2024-02-21T13:10:56;12.5;67.8
80192;SHT31;69513;51.990;5.704;2024-02-21T13:13:27;12.5;67.3
80192;SHT31;69513;51.990;5.704;2024-02-21T13:15:57;12.5;67.8
80192;SHT31;69513;51.990;5.704;2024-02-21T13:18:27;12.6;67.5
80192;SHT31;69513;51.990;5.704;2024-02-21T13:20:56;12.6;67.0
80192;SHT31;69513;51.990;5.704;2024-02-21T13:23:26;12.6;66.3
80192;SHT31;69513;51.990;5.704;2024-02-21T13:25:56;12.6;67.0
80192;SHT31;69513;51.990;5.704;2024-02-21T13:28:25;12.6;67.3
80192;SHT31;69513;51.990;5.704;2024-02-21T13:30:55;12.6;67.2
80192;SHT31;69513;51.990;5.704;2024-02-21T13:33:25;12.6;67.9
80192;SHT31;69513;51.990;5.704;2024-02-21T13:35:56;12.6;67.3
80192;SHT31;69513;51.990;5.704;2024-02-21T13:38:29;12.6;67.1
80192;SHT31;69513;51.990;5.704;2024-02-21T13:41:00;12.6;67.2
80192;SHT31;69513;51.990;5.704;2024-02-21T13:43:29;12.6;67.1
80192;SHT31;69513;51.990;5.704;2024-02-21T13:46:01;12.6;66.2
80192;SHT31;69513;51.990;5.704;2024-02-21T13:48:37;12.6;66.9
80192;SHT31;69513;51.990;5.704;2024-02-21T13:51:07;12.6;67.3
80192;SHT31;69513;51.990;5.704;2024-02-21T13:53:38;12.6;65.7
80192;SHT31;69513;51.990;5.704;2024-02-21T13:56:09;12.6;66.3
80192;SHT31;69513;51.990;5.704;2024-02-21T13:58:38;12.6;66.5
80192;SHT31;69513;51.990;5.704;2024-02-21T14:01:09;12.5;65.7
80192;SHT31;69513;51.990;5.704;2024-02-21T14:03:39;12.5;66.4
80192;SHT31;69513;51.990;5.704;2024-02-21T14:06:09;12.5;66.8
80192;SHT31;69513;51.990;5.704;2024-02-21T14:08:39;12.5;66.6
80192;SHT31;69513;51.990;5.704;2024-02-21T14:11:11;12.5;66.8
80192;SHT31;69513;51.990;5.704;2024-02-21T14:13:42;12.5;67.8
80192;SHT31;69513;51.990;5.704;2024-02-21T14:16:12;12.6;67.1
80192;SHT31;69513;51.990;5.704;2024-02-21T14:18:45;12.6;66.8
80192;SHT31;69513;51.990;5.704;2024-02-21T14:21:16;12.6;66.7
80192;SHT31;69513;51.990;5.704;2024-02-21T14:23:47;12.6;66.4
80192;SHT31;69513;51.990;5.704;2024-02-21T14:26:16;12.6;66.7
80192;SHT31;69513;51.990;5.704;2024-02-21T14:28:46;12.6;66.7
80192;SHT31;69513;51.990;5.704;2024-02-21T14:31:15;12.6;65.7
80192;SHT31;69513;51.990;5.704;2024-02-21T14:33:44;12.6;66.2
80192;SHT31;69513;51.990;5.704;2024-02-21T14:36:14;12.6;66.3
80192;SHT31;69513;51.990;5.704;2024-02-21T14:38:44;12.6;66.1
80192;SHT31;69513;51.990;5.704;2024-02-21T14:41:16;12.6;65.7
80192;SHT31;69513;51.990;5.704;2024-02-21T14:43:47;12.6;65.5
80192;SHT31;69513;51.990;5.704;2024-02-21T14:46:16;12.6;65.4
80192;SHT31;69513;51.990;5.704;2024-02-21T14:48:46;12.6;64.9
80192;SHT31;69513;51.990;5.704;2024-02-21T14:51:15;12.6;64.8
80192;SHT31;69513;51.990;5.704;2024-02-21T14:53:45;12.6;65.3
80192;SHT31;69513;51.990;5.704;2024-02-21T14:56:16;12.6;65.7
80192;SHT31;69513;51.990;5.704;2024-02-21T14:58:47;12.5;65.5
80192;SHT31;69513;51.990;5.704;2024-02-21T15:01:16;12.5;66.0
80192;SHT31;69513;51.990;5.704;2024-02-21T15:03:45;12.5;66.4
80192;SHT31;69513;51.990;5.704;2024-02-21T15:06:15;12.5;66.0
80192;SHT31;69513;51.990;5.704;2024-02-21T15:08:44;12.5;66.6
80192;SHT31;69513;51.990;5.704;2024-02-21T15:11:16;12.5;66.9
80192;SHT31;69513;51.990;5.704;2024-02-21T15:13:46;12.5;67.2
80192;SHT31;69513;51.990;5.704;2024-02-21T15:16:16;12.5;67.2
80192;SHT31;69513;51.990;5.704;2024-02-21T15:18:45;12.5;67.5
80192;SHT31;69513;51.990;5.704;2024-02-21T15:21:15;12.5;67.6
80192;SHT31;69513;51.990;5.704;2024-02-21T15:23:44;12.4;68.2
80192;SHT31;69513;51.990;5.704;2024-02-21T15:26:15;12.4;68.2
80192;SHT31;69513;51.990;5.704;2024-02-21T15:28:45;12.4;68.6
80192;SHT31;69513;51.990;5.704;2024-02-21T15:31:22;12.4;69.1
80192;SHT31;69513;51.990;5.704;2024-02-21T15:33:54;12.4;69.4
80192;SHT31;69513;51.990;5.704;2024-02-21T15:36:23;12.4;69.6
80192;SHT31;69513;51.990;5.704;2024-02-21T15:38:53;12.3;69.6
80192;SHT31;69513;51.990;5.704;2024-02-21T15:41:27;12.3;69.9
80192;SHT31;69513;51.990;5.704;2024-02-21T15:43:56;12.3;70.4
80192;SHT31;69513;51.990;5.704;2024-02-21T15:46:27;12.2;70.9
80192;SHT31;69513;51.990;5.704;2024-02-21T15:49:01;12.2;70.8
80192;SHT31;69513;51.990;5.704;2024-02-21T15:51:31;12.2;71.0
80192;SHT31;69513;51.990;5.704;2024-02-21T15:54:04;12.2;71.3
80192;SHT31;69513;51.990;5.704;2024-02-21T15:56:36;12.1;71.4
80192;SHT31;69513;51.990;5.704;2024-02-21T15:59:07;12.1;71.8
80192;SHT31;69513;51.990;5.704;2024-02-21T16:01:39;12.1;72.1
80192;SHT31;69513;51.990;5.704;2024-02-21T16:04:11;12.1;71.8
80192;SHT31;69513;51.990;5.704;2024-02-21T16:06:42;12.0;72.2
80192;SHT31;69513;51.990;5.704;2024-02-21T16:09:14;12.0;72.4
80192;SHT31;69513;51.990;5.704;2024-02-21T16:11:43;11.9;72.8
80192;SHT31;69513;51.990;5.704;2024-02-21T16:14:15;11.9;72.7
80192;SHT31;69513;51.990;5.704;2024-02-21T16:16:45;11.9;73.0
80192;SHT31;69513;51.990;5.704;2024-02-21T16:19:16;11.8;73.1
80192;SHT31;69513;51.990;5.704;2024-02-21T16:21:48;11.8;73.3
80192;SHT31;69513;51.990;5.704;2024-02-21T16:24:17;11.8;73.4
80192;SHT31;69513;51.990;5.704;2024-02-21T16:26:47;11.7;73.6
80192;SHT31;69513;51.990;5.704;2024-02-21T16:29:16;11.7;73.4
80192;SHT31;69513;51.990;5.704;2024-02-21T16:31:47;11.7;73.7
80192;SHT31;69513;51.990;5.704;2024-02-21T16:34:18;11.6;73.6
80192;SHT31;69513;51.990;5.704;2024-02-21T16:36:48;11.6;74.0
80192;SHT31;69513;51.990;5.704;2024-02-21T16:39:19;11.6;74.3
80192;SHT31;69513;51.990;5.704;2024-02-21T16:41:48;11.6;74.7
80192;SHT31;69513;51.990;5.704;2024-02-21T16:44:21;11.5;74.7
80192;SHT31;69513;51.990;5.704;2024-02-21T16:46:53;11.5;74.7
80192;SHT31;69513;51.990;5.704;2024-02-21T16:49:23;11.5;75.0
80192;SHT31;69513;51.990;5.704;2024-02-21T16:51:55;11.5;74.9
80192;SHT31;69513;51.990;5.704;2024-02-21T16:54:26;11.5;75.1
80192;SHT31;69513;51.990;5.704;2024-02-21T16:56:55;11.5;75.0
80192;SHT31;69513;51.990;5.704;2024-02-21T16:59:27;11.4;75.2
80192;SHT31;69513;51.990;5.704;2024-02-21T17:01:57;11.4;75.3
80192;SHT31;69513;51.990;5.704;2024-02-21T17:04:29;11.4;75.6
80192;SHT31;69513;51.990;5.704;2024-02-21T17:06:58;11.4;75.6
80192;SHT31;69513;51.990;5.704;2024-02-21T17:09:29;11.4;75.4
80192;SHT31;69513;51.990;5.704;2024-02-21T17:12:00;11.3;75.7
80192;SHT31;69513;51.990;5.704;2024-02-21T17:14:31;11.3;75.6
80192;SHT31;69513;51.990;5.704;2024-02-21T17:17:00;11.3;75.9
80192;SHT31;69513;51.990;5.704;2024-02-21T17:19:30;11.3;75.9
80192;SHT31;69513;51.990;5.704;2024-02-21T17:21:59;11.3;76.1
80192;SHT31;69513;51.990;5.704;2024-02-21T17:24:29;11.3;76.3
80192;SHT31;69513;51.990;5.704;2024-02-21T17:26:58;11.2;76.3
80192;SHT31;69513;51.990;5.704;2024-02-21T17:29:28;11.2;76.6
80192;SHT31;69513;51.990;5.704;2024-02-21T17:31:59;11.2;76.7
80192;SHT31;69513;51.990;5.704;2024-02-21T17:34:29;11.2;76.7
80192;SHT31;69513;51.990;5.704;2024-02-21T17:36:59;11.2;76.8
80192;SHT31;69513;51.990;5.704;2024-02-21T17:39:30;11.2;76.8
80192;SHT31;69513;51.990;5.704;2024-02-21T17:42:02;11.2;76.9
80192;SHT31;69513;51.990;5.704;2024-02-21T17:44:32;11.2;77.1
80192;SHT31;69513;51.990;5.704;2024-02-21T17:47:04;11.2;76.9
80192;SHT31;69513;51.990;5.704;2024-02-21T17:49:35;11.2;77.2
80192;SHT31;69513;51.990;5.704;2024-02-21T17:52:06;11.2;77.1
80192;SHT31;69513;51.990;5.704;2024-02-21T17:54:35;11.2;76.8
80192;SHT31;69513;51.990;5.704;2024-02-21T17:57:07;11.2;76.7
80192;SHT31;69513;51.990;5.704;2024-02-21T17:59:42;11.2;77.0
80192;SHT31;69513;51.990;5.704;2024-02-21T18:02:13;11.1;77.2
80192;SHT31;69513;51.990;5.704;2024-02-21T18:04:48;11.1;77.2
80192;SHT31;69513;51.990;5.704;2024-02-21T18:07:18;11.1;77.4
80192;SHT31;69513;51.990;5.704;2024-02-21T18:09:51;11.1;77.2
80192;SHT31;69513;51.990;5.704;2024-02-21T18:12:20;11.1;77.1
80192;SHT31;69513;51.990;5.704;2024-02-21T18:14:53;11.1;77.3
80192;SHT31;69513;51.990;5.704;2024-02-21T18:17:23;11.1;77.2
80192;SHT31;69513;51.990;5.704;2024-02-21T18:19:53;11.1;77.3
80192;SHT31;69513;51.990;5.704;2024-02-21T18:22:22;11.1;77.4
80192;SHT31;69513;51.990;5.704;2024-02-21T18:24:54;11.1;77.3
80192;SHT31;69513;51.990;5.704;2024-02-21T18:27:25;11.1;77.5
80192;SHT31;69513;51.990;5.704;2024-02-21T18:29:55;11.1;77.7
80192;SHT31;69513;51.990;5.704;2024-02-21T18:32:25;11.0;77.7
80192;SHT31;69513;51.990;5.704;2024-02-21T18:34:55;11.0;77.9
80192;SHT31;69513;51.990;5.704;2024-02-21T18:37:28;11.0;77.9
80192;SHT31;69513;51.990;5.704;2024-02-21T18:39:59;11.0;77.8
80192;SHT31;69513;51.990;5.704;2024-02-21T18:42:34;11.0;78.0
80192;SHT31;69513;51.990;5.704;2024-02-21T18:45:07;11.0;78.0
80192;SHT31;69513;51.990;5.704;2024-02-21T18:47:38;11.0;78.2
80192;SHT31;69513;51.990;5.704;2024-02-21T18:50:13;11.0;78.2
80192;SHT31;69513;51.990;5.704;2024-02-21T18:52:43;11.0;78.2
80192;SHT31;69513;51.990;5.704;2024-02-21T18:55:19;11.0;78.2
80192;SHT31;69513;51.990;5.704;2024-02-21T18:57:49;11.0;78.3
80192;SHT31;69513;51.990;5.704;2024-02-21T19:00:20;11.0;78.2
80192;SHT31;69513;51.990;5.704;2024-02-21T19:02:52;11.0;78.4
80192;SHT31;69513;51.990;5.704;2024-02-21T19:05:22;11.0;78.4
80192;SHT31;69513;51.990;5.704;2024-02-21T19:07:52;10.9;78.6
80192;SHT31;69513;51.990;5.704;2024-02-21T19:10:22;10.9;78.7
80192;SHT31;69513;51.990;5.704;2024-02-21T19:12:53;10.9;78.7
80192;SHT31;69513;51.990;5.704;2024-02-21T19:15:25;10.9;78.8
80192;SHT31;69513;51.990;5.704;2024-02-21T19:17:55;10.9;78.9
80192;SHT31;69513;51.990;5.704;2024-02-21T19:20:24;10.9;78.7
80192;SHT31;69513;51.990;5.704;2024-02-21T19:22:54;10.9;79.0
80192;SHT31;69513;51.990;5.704;2024-02-21T19:25:23;10.9;79.1
80192;SHT31;69513;51.990;5.704;2024-02-21T19:27:54;10.9;79.0
80192;SHT31;69513;51.990;5.704;2024-02-21T19:30:23;10.9;79.1
80192;SHT31;69513;51.990;5.704;2024-02-21T19:32:55;10.9;79.3
80192;SHT31;69513;51.990;5.704;2024-02-21T19:35:24;10.9;79.3
80192;SHT31;69513;51.990;5.704;2024-02-21T19:37:54;10.9;79.4
80192;SHT31;69513;51.990;5.704;2024-02-21T19:40:30;10.9;79.5
80192;SHT31;69513;51.990;5.704;2024-02-21T19:43:00;10.9;79.5
80192;SHT31;69513;51.990;5.704;2024-02-21T19:45:30;11.0;79.5
80192;SHT31;69513;51.990;5.704;2024-02-21T19:48:03;11.0;79.3
80192;SHT31;69513;51.990;5.704;2024-02-21T19:50:35;11.0;79.4
80192;SHT31;69513;51.990;5.704;2024-02-21T19:53:07;11.0;79.3
80192;SHT31;69513;51.990;5.704;2024-02-21T19:55:37;11.0;79.4
80192;SHT31;69513;51.990;5.704;2024-02-21T19:58:06;11.0;79.5
80192;SHT31;69513;51.990;5.704;2024-02-21T20:00:36;11.0;79.6
80192;SHT31;69513;51.990;5.704;2024-02-21T20:03:06;11.0;79.6
80192;SHT31;69513;51.990;5.704;2024-02-21T20:05:36;11.0;79.6
80192;SHT31;69513;51.990;5.704;2024-02-21T20:08:09;11.0;79.6
80192;SHT31;69513;51.990;5.704;2024-02-21T20:10:41;11.0;79.6
80192;SHT31;69513;51.990;5.704;2024-02-21T20:13:10;11.0;79.5
80192;SHT31;69513;51.990;5.704;2024-02-21T20:15:41;11.0;79.5
80192;SHT31;69513;51.990;5.704;2024-02-21T20:18:12;11.0;79.5
80192;SHT31;69513;51.990;5.704;2024-02-21T20:20:41;11.0;79.6
80192;SHT31;69513;51.990;5.704;2024-02-21T20:23:11;11.0;79.6
80192;SHT31;69513;51.990;5.704;2024-02-21T20:25:43;11.0;79.7
80192;SHT31;69513;51.990;5.704;2024-02-21T20:28:12;11.0;79.7
80192;SHT31;69513;51.990;5.704;2024-02-21T20:30:47;11.0;79.8
80192;SHT31;69513;51.990;5.704;2024-02-21T20:33:17;11.0;79.7
80192;SHT31;69513;51.990;5.704;2024-02-21T20:35:46;11.0;79.8
80192;SHT31;69513;51.990;5.704;2024-02-21T20:38:18;11.0;79.8
80192;SHT31;69513;51.990;5.704;2024-02-21T20:40:48;11.0;79.9
80192;SHT31;69513;51.990;5.704;2024-02-21T20:43:17;11.1;79.8
80192;SHT31;69513;51.990;5.704;2024-02-21T20:45:47;11.1;79.9
80192;SHT31;69513;51.990;5.704;2024-02-21T20:48:17;11.1;79.9
80192;SHT31;69513;51.990;5.704;2024-02-21T20:50:46;11.1;79.9
80192;SHT31;69513;51.990;5.704;2024-02-21T20:53:15;11.0;80.0
80192;SHT31;69513;51.990;5.704;2024-02-21T20:55:47;11.0;80.2
80192;SHT31;69513;51.990;5.704;2024-02-21T20:58:17;11.0;80.2
80192;SHT31;69513;51.990;5.704;2024-02-21T21:00:46;11.0;80.4
80192;SHT31;69513;51.990;5.704;2024-02-21T21:03:16;11.0;80.5
80192;SHT31;69513;51.990;5.704;2024-02-21T21:05:48;11.0;80.5
80192;SHT31;69513;51.990;5.704;2024-02-21T21:08:19;11.0;80.5
80192;SHT31;69513;51.990;5.704;2024-02-21T21:10:48;11.0;80.5
80192;SHT31;69513;51.990;5.704;2024-02-21T21:13:18;11.0;80.5
80192;SHT31;69513;51.990;5.704;2024-02-21T21:15:47;11.0;80.5
80192;SHT31;69513;51.990;5.704;2024-02-21T21:18:17;11.1;80.5
80192;SHT31;69513;51.990;5.704;2024-02-21T21:20:47;11.1;80.5
80192;SHT31;69513;51.990;5.704;2024-02-21T21:23:16;11.1;80.6
80192;SHT31;69513;51.990;5.704;2024-02-21T21:25:46;11.1;80.7
80192;SHT31;69513;51.990;5.704;2024-02-21T21:28:16;11.1;80.7
80192;SHT31;69513;51.990;5.704;2024-02-21T21:30:47;11.1;80.8
80192;SHT31;69513;51.990;5.704;2024-02-21T21:33:17;11.1;80.8
80192;SHT31;69513;51.990;5.704;2024-02-21T21:35:49;11.1;80.8
80192;SHT31;69513;51.990;5.704;2024-02-21T21:38:20;11.1;80.8
80192;SHT31;69513;51.990;5.704;2024-02-21T21:40:50;11.1;80.9
80192;SHT31;69513;51.990;5.704;2024-02-21T21:43:20;11.1;80.9
80192;SHT31;69513;51.990;5.704;2024-02-21T21:45:51;11.1;80.9
80192;SHT31;69513;51.990;5.704;2024-02-21T21:48:20;11.1;81.0
80192;SHT31;69513;51.990;5.704;2024-02-21T21:50:51;11.1;81.0
80192;SHT31;69513;51.990;5.704;2024-02-21T21:53:20;11.1;81.1
80192;SHT31;69513;51.990;5.704;2024-02-21T21:55:50;11.1;81.1
80192;SHT31;69513;51.990;5.704;2024-02-21T21:58:19;11.1;81.3
80192;SHT31;69513;51.990;5.704;2024-02-21T22:00:48;11.1;81.3
80192;SHT31;69513;51.990;5.704;2024-02-21T22:03:19;11.1;81.5
